createdAt,value
2019-04-30T00:06:00.776Z,4.63
2019-04-30T00:17:15.187Z,4.97
2019-04-30T00:40:08.991Z,4.67
2019-04-30T00:43:50.742Z,5.60
2019-04-30T00:51:13.690Z,5.10
2019-04-30T00:58:11.939Z,6.77
2019-04-30T01:23:43.065Z,6.63
2019-04-30T01:39:02.604Z,7.50
2019-04-30T01:42:07.246Z,7.03
2019-04-30T01:48:59.146Z,7.60
2019-04-30T01:56:10.523Z,8.13
2019-04-30T02:03:16.430Z,7.70
2019-04-30T02:10:15.491Z,8.00
2019-04-30T02:13:56.003Z,7.87
2019-04-30T02:29:12.416Z,7.67
2019-04-30T02:32:22.947Z,8.50
2019-04-30T02:39:40.337Z,7.70
2019-04-30T02:48:25.351Z,8.20
2019-04-30T03:04:41.831Z,7.10
2019-04-30T03:23:10.184Z,7.87
2019-04-30T03:31:04.956Z,9.23
2019-04-30T03:41:00.140Z,9.10
2019-04-30T03:44:32.331Z,10.73
2019-04-30T03:47:45.523Z,9.70
2019-04-30T03:51:16.852Z,11.97
2019-04-30T04:01:41.390Z,10.67
2019-04-30T04:05:39.947Z,11.80
2019-04-30T04:31:52.868Z,12.93
2019-04-30T04:38:12.635Z,12.17
2019-04-30T04:41:50.824Z,13.07
2019-04-30T04:44:20.534Z,12.23
2019-04-30T04:46:50.520Z,12.97
2019-04-30T04:49:20.704Z,11.73
2019-04-30T04:51:49.998Z,13.03
2019-04-30T04:54:20.214Z,12.27
2019-04-30T04:56:52.901Z,12.80
2019-04-30T04:59:20.396Z,13.23
2019-04-30T05:07:00.390Z,12.57
2019-04-30T05:09:31.478Z,12.40
2019-04-30T05:12:00.522Z,13.10
2019-04-30T05:14:29.608Z,14.40
2019-04-30T05:16:58.723Z,13.23
2019-04-30T05:19:28.616Z,14.33
2019-04-30T05:21:59.658Z,12.97
2019-04-30T05:24:28.703Z,13.50
2019-04-30T05:26:58.691Z,13.60
2019-04-30T05:29:28.925Z,12.27
2019-04-30T05:31:58.571Z,14.37
2019-04-30T05:34:28.844Z,13.53
2019-04-30T05:36:58.513Z,13.80
2019-04-30T05:39:28.712Z,13.50
2019-04-30T05:41:58.944Z,14.97
2019-04-30T05:44:29.740Z,14.27
2019-04-30T05:46:59.274Z,14.10
2019-04-30T05:49:28.759Z,14.67
2019-04-30T05:51:59.331Z,13.30
2019-04-30T05:54:29.230Z,15.53
2019-04-30T05:56:59.413Z,14.90
2019-04-30T05:59:29.028Z,17.03
2019-04-30T06:01:59.221Z,15.00
2019-04-30T06:04:29.406Z,14.47
2019-04-30T06:06:58.736Z,15.90
2019-04-30T06:09:43.117Z,16.17
2019-04-30T06:12:21.614Z,17.07
2019-04-30T06:14:54.188Z,15.03
2019-04-30T06:17:23.677Z,15.57
2019-04-30T06:19:52.821Z,15.97
2019-04-30T06:22:22.013Z,16.07
2019-04-30T06:24:51.106Z,16.03
2019-04-30T06:27:20.357Z,15.30
2019-04-30T06:29:49.863Z,14.73
2019-04-30T06:32:19.086Z,15.83
2019-04-30T06:34:49.853Z,14.90
2019-04-30T06:37:19.593Z,14.87
2019-04-30T06:39:50.072Z,15.60
2019-04-30T06:42:19.551Z,15.77
2019-04-30T06:44:49.500Z,15.80
2019-04-30T06:47:26.533Z,15.23
2019-04-30T06:49:49.694Z,15.03
2019-04-30T06:52:22.979Z,15.90
2019-04-30T06:54:49.960Z,14.93
2019-04-30T06:57:19.875Z,16.83
2019-04-30T06:59:51.218Z,14.73
2019-04-30T07:02:20.004Z,16.47
2019-04-30T07:04:49.303Z,15.87
2019-04-30T07:07:22.968Z,15.93
2019-04-30T07:10:04.628Z,15.50
2019-04-30T07:12:40.886Z,15.50
2019-04-30T07:15:10.094Z,14.97
2019-04-30T07:17:40.682Z,14.47
2019-04-30T07:20:10.446Z,14.93
2019-04-30T07:22:45.486Z,15.63
2019-04-30T07:25:10.557Z,13.63
2019-04-30T07:27:40.077Z,13.57
2019-04-30T07:30:10.212Z,13.13
2019-04-30T07:32:39.334Z,13.87
2019-04-30T07:35:09.576Z,15.87
2019-04-30T07:37:39.272Z,14.63
2019-04-30T07:40:09.279Z,14.97
2019-04-30T07:42:44.718Z,13.70
2019-04-30T07:45:09.781Z,13.80
2019-04-30T07:47:39.504Z,14.70
2019-04-30T07:50:10.756Z,14.07
2019-04-30T07:52:57.731Z,12.27
2019-04-30T07:55:11.147Z,13.40
2019-04-30T07:57:40.607Z,12.50
2019-04-30T08:00:10.223Z,13.07
2019-04-30T08:02:44.615Z,13.00
2019-04-30T08:05:22.697Z,13.07
2019-04-30T08:07:51.816Z,12.23
2019-04-30T08:10:20.920Z,12.03
2019-04-30T08:12:50.855Z,12.60
2019-04-30T08:15:20.355Z,11.53
2019-04-30T08:18:02.300Z,11.53
2019-04-30T08:20:20.315Z,11.10
2019-04-30T08:22:49.609Z,11.30
2019-04-30T08:25:21.524Z,10.70
2019-04-30T08:27:49.554Z,11.37
2019-04-30T08:30:26.205Z,11.37
2019-04-30T08:32:50.076Z,12.03
2019-04-30T08:35:19.834Z,10.83
2019-04-30T08:37:49.968Z,11.73
2019-04-30T08:40:19.258Z,11.57
2019-04-30T08:42:49.577Z,11.17
2019-04-30T08:45:19.845Z,11.83
2019-04-30T08:47:49.441Z,11.20
2019-04-30T08:50:19.998Z,11.40
2019-04-30T08:52:50.074Z,10.68
2019-04-30T08:55:22.347Z,10.70
2019-04-30T08:57:50.373Z,10.23
2019-04-30T09:00:19.984Z,10.90
2019-04-30T09:02:49.340Z,10.68
2019-04-30T09:05:30.027Z,10.53
2019-04-30T09:07:59.709Z,10.17
2019-04-30T09:10:29.566Z,10.13
2019-04-30T09:12:59.800Z,9.93
2019-04-30T09:15:29.178Z,9.90
2019-04-30T09:18:03.806Z,9.98
2019-04-30T09:20:29.250Z,9.70
2019-04-30T09:22:59.585Z,9.43
2019-04-30T09:25:28.882Z,9.53
2019-04-30T09:27:58.804Z,10.28
2019-04-30T09:30:29.792Z,10.03
2019-04-30T09:32:59.574Z,9.50
2019-04-30T09:35:31.758Z,9.63
2019-04-30T09:38:01.848Z,10.10
2019-04-30T09:40:32.501Z,9.33
2019-04-30T09:43:01.242Z,9.90
2019-04-30T09:45:30.342Z,9.83
2019-04-30T09:47:59.454Z,9.90
2019-04-30T09:50:29.199Z,10.00
2019-04-30T09:53:00.967Z,10.25
2019-04-30T09:55:29.442Z,9.68
2019-04-30T09:57:58.937Z,9.28
2019-04-30T10:00:29.455Z,9.85
2019-04-30T10:02:59.866Z,9.58
2019-04-30T10:05:29.441Z,9.00
2019-04-30T10:07:59.349Z,8.38
2019-04-30T10:10:34.018Z,9.00
2019-04-30T10:13:03.239Z,9.63
2019-04-30T10:15:42.010Z,8.68
2019-04-30T10:18:11.158Z,8.35
2019-04-30T10:20:41.850Z,8.55
2019-04-30T10:23:10.941Z,8.65
2019-04-30T10:25:40.003Z,9.35
2019-04-30T10:28:09.991Z,8.48
2019-04-30T10:30:39.396Z,8.75
2019-04-30T10:33:10.034Z,9.10
2019-04-30T10:35:39.304Z,9.33
2019-04-30T10:38:09.880Z,7.87
2019-04-30T10:40:39.250Z,9.65
2019-04-30T10:43:08.915Z,9.65
2019-04-30T10:45:38.954Z,9.08
2019-04-30T10:48:08.207Z,8.88
2019-04-30T10:50:40.725Z,8.50
2019-04-30T10:53:09.159Z,8.95
2019-04-30T10:55:38.876Z,9.73
2019-04-30T10:58:08.084Z,10.40
2019-04-30T11:00:39.427Z,8.80
2019-04-30T11:03:19.527Z,9.63
2019-04-30T11:05:41.301Z,8.65
2019-04-30T11:08:10.618Z,9.93
2019-04-30T11:10:40.028Z,9.18
2019-04-30T11:13:09.200Z,8.98
2019-04-30T11:15:39.433Z,8.78
2019-04-30T11:18:08.866Z,10.95
2019-04-30T11:20:39.738Z,9.83
2019-04-30T11:23:14.464Z,9.40
2019-04-30T11:25:41.043Z,8.58
2019-04-30T11:28:11.300Z,9.05
2019-04-30T11:30:40.907Z,8.93
2019-04-30T11:33:10.291Z,8.85
2019-04-30T11:35:39.590Z,9.13
2019-04-30T11:38:08.698Z,9.80
2019-04-30T11:40:39.992Z,8.40
2019-04-30T11:43:08.618Z,9.18
2019-04-30T11:46:23.768Z,9.33
2019-04-30T11:48:52.914Z,9.33
2019-04-30T11:51:22.006Z,10.05
2019-04-30T11:53:51.104Z,10.08
2019-04-30T11:56:20.291Z,10.15
2019-04-30T11:58:49.376Z,9.23
2019-04-30T12:01:20.785Z,9.43
2019-04-30T12:03:49.978Z,9.53
2019-04-30T12:06:19.053Z,9.03
2019-04-30T12:09:11.832Z,10.10
2019-04-30T12:11:40.936Z,9.28
2019-04-30T12:14:10.066Z,9.70
2019-04-30T12:16:39.591Z,9.98
2019-04-30T12:19:09.108Z,9.80
2019-04-30T12:21:38.298Z,10.63
2019-04-30T12:24:07.412Z,9.40
2019-04-30T12:26:36.516Z,8.78
2019-04-30T12:29:05.660Z,9.45
2019-04-30T12:31:34.748Z,8.33
2019-04-30T12:34:03.834Z,8.30
2019-04-30T12:36:32.932Z,8.38
2019-04-30T12:39:02.021Z,9.03
2019-04-30T12:41:31.095Z,9.13
2019-04-30T12:44:00.220Z,8.98
2019-04-30T12:46:29.287Z,8.50
2019-04-30T12:49:07.772Z,8.55
2019-04-30T12:51:46.282Z,8.08
2019-04-30T12:54:49.538Z,8.03
2019-04-30T12:57:29.512Z,8.73
2019-04-30T13:00:00.497Z,8.35
2019-04-30T13:02:29.729Z,8.48
2019-04-30T13:05:00.525Z,8.55
2019-04-30T13:07:30.716Z,8.20
2019-04-30T13:10:01.849Z,9.25
2019-04-30T13:12:31.510Z,8.38
2019-04-30T13:15:00.825Z,8.50
2019-04-30T13:17:29.913Z,8.78
2019-04-30T13:19:59.056Z,8.75
2019-04-30T13:22:29.002Z,8.13
2019-04-30T13:24:59.603Z,8.03
2019-04-30T13:27:30.875Z,8.25
2019-04-30T13:30:29.666Z,8.68
2019-04-30T13:33:23.658Z,8.03
2019-04-30T13:35:52.847Z,7.80
2019-04-30T13:38:49.643Z,8.00
2019-04-30T13:41:36.925Z,7.92
2019-04-30T13:44:09.730Z,7.97
2019-04-30T13:46:39.545Z,7.42
2019-04-30T13:49:08.769Z,8.70
2019-04-30T13:51:37.874Z,8.33
2019-04-30T13:54:06.957Z,8.10
2019-04-30T13:56:36.067Z,7.62
2019-04-30T13:59:05.243Z,7.72
2019-04-30T14:01:34.431Z,8.10
2019-04-30T14:04:25.833Z,8.33
2019-04-30T14:07:11.025Z,7.78
2019-04-30T14:09:40.242Z,7.30
2019-04-30T14:12:09.437Z,7.70
2019-04-30T14:14:39.559Z,7.60
2019-04-30T14:17:09.218Z,7.53
2019-04-30T14:19:38.417Z,7.42
2019-04-30T14:22:08.981Z,7.42
2019-04-30T14:24:38.200Z,7.83
2019-04-30T14:27:09.033Z,7.95
2019-04-30T14:29:39.531Z,7.53
2019-04-30T14:32:08.778Z,7.60
2019-04-30T14:34:39.523Z,7.75
2019-04-30T14:37:08.791Z,7.75
2019-04-30T14:39:37.983Z,7.33
2019-04-30T14:42:10.515Z,7.45
2019-04-30T14:44:40.289Z,7.53
2019-04-30T14:47:20.400Z,7.87
2019-04-30T14:53:48.992Z,7.97
2019-04-30T14:56:34.694Z,8.43
2019-04-30T14:59:35.067Z,7.80
2019-04-30T15:02:23.254Z,8.65
2019-04-30T15:04:52.364Z,7.97
2019-04-30T15:07:21.512Z,7.97
2019-04-30T15:09:50.593Z,7.37
2019-04-30T15:12:19.698Z,8.05
2019-04-30T15:14:49.363Z,7.28
2019-04-30T15:17:18.551Z,6.90
2019-04-30T15:19:49.402Z,7.35
2019-04-30T15:22:18.978Z,7.30
2019-04-30T15:24:49.183Z,6.75
2019-04-30T15:27:19.161Z,6.90
2019-04-30T15:29:56.615Z,6.65
2019-04-30T15:32:19.272Z,6.90
2019-04-30T15:34:49.056Z,7.33
2019-04-30T15:37:21.802Z,7.30
2019-04-30T15:39:49.152Z,7.67
2019-04-30T15:42:19.022Z,7.40
2019-04-30T15:44:49.672Z,7.45
2019-04-30T15:47:19.149Z,7.30
2019-04-30T15:49:48.295Z,7.20
2019-04-30T15:52:18.958Z,7.58
2019-04-30T15:54:49.092Z,7.12
2019-04-30T15:57:18.946Z,7.08
2019-04-30T15:59:48.250Z,6.92
2019-04-30T16:02:25.629Z,6.90
2019-04-30T16:05:12.159Z,7.15
2019-04-30T16:07:59.050Z,6.92
2019-04-30T16:10:42.531Z,7.03
2019-04-30T16:13:15.955Z,7.10
2019-04-30T16:15:45.045Z,6.67
2019-04-30T16:18:16.989Z,6.53
2019-04-30T16:20:46.069Z,6.62
2019-04-30T16:23:15.183Z,6.37
2019-04-30T16:25:44.282Z,6.78
2019-04-30T16:28:13.421Z,6.55
2019-04-30T16:30:42.918Z,6.42
2019-04-30T16:33:12.121Z,6.05
2019-04-30T16:35:41.217Z,5.90
2019-04-30T16:38:10.323Z,6.50
2019-04-30T16:40:39.450Z,6.40
2019-04-30T16:43:08.599Z,6.40
2019-04-30T16:45:38.971Z,5.95
2019-04-30T16:48:10.080Z,5.85
2019-04-30T16:50:38.971Z,6.22
2019-04-30T16:53:08.114Z,6.33
2019-04-30T16:55:37.230Z,5.95
2019-04-30T16:58:08.794Z,6.30
2019-04-30T17:00:39.186Z,6.08
2019-04-30T17:03:15.059Z,6.53
2019-04-30T17:05:49.912Z,6.20
2019-04-30T17:08:28.980Z,6.00
2019-04-30T17:11:08.506Z,5.70
2019-04-30T17:13:59.706Z,6.20
2019-04-30T17:16:30.228Z,5.85
2019-04-30T17:18:59.531Z,7.12
2019-04-30T17:21:29.655Z,6.35
2019-04-30T17:23:58.970Z,6.37
2019-04-30T17:26:28.099Z,6.40
2019-04-30T17:28:59.702Z,5.97
2019-04-30T17:31:28.266Z,6.03
2019-04-30T17:33:57.271Z,5.90
2019-04-30T17:36:26.436Z,6.12
2019-04-30T17:38:55.580Z,6.17
2019-04-30T17:41:24.711Z,6.03
2019-04-30T17:43:53.820Z,6.55
2019-04-30T17:46:22.962Z,6.53
2019-04-30T17:48:52.342Z,6.55
2019-04-30T17:51:22.952Z,6.92
2019-04-30T17:54:09.771Z,6.47
2019-04-30T17:56:38.916Z,6.00
2019-04-30T17:59:08.088Z,6.87
2019-04-30T18:01:39.908Z,6.30
2019-04-30T18:04:08.852Z,7.08
2019-04-30T18:06:38.408Z,6.42
2019-04-30T18:09:10.771Z,6.80
2019-04-30T18:11:39.616Z,6.55
2019-04-30T18:14:08.917Z,5.85
2019-04-30T18:16:38.716Z,5.85
2019-04-30T18:19:24.503Z,6.05
2019-04-30T18:21:59.621Z,5.83
2019-04-30T18:24:56.305Z,5.72
2019-04-30T18:27:43.062Z,6.45
2019-04-30T18:30:03.223Z,6.00
2019-04-30T18:32:32.359Z,6.30
2019-04-30T18:35:01.361Z,6.03
2019-04-30T18:37:32.874Z,6.15
2019-04-30T18:40:02.102Z,5.75
2019-04-30T18:42:31.283Z,6.28
2019-04-30T18:45:00.362Z,5.90
2019-04-30T18:47:29.570Z,5.97
2019-04-30T18:49:59.462Z,5.95
2019-04-30T18:52:28.657Z,6.62
2019-04-30T18:54:59.491Z,6.25
2019-04-30T18:57:28.699Z,5.80
2019-04-30T18:59:59.150Z,6.53
2019-04-30T19:02:28.815Z,6.62
2019-04-30T19:04:59.510Z,6.42
2019-04-30T19:07:50.971Z,6.30
2019-04-30T19:10:27.543Z,6.85
2019-04-30T19:13:08.930Z,7.17
2019-04-30T19:16:18.627Z,6.80
2019-04-30T19:18:37.887Z,6.95
2019-04-30T19:21:08.947Z,7.17
2019-04-30T19:23:39.068Z,8.00
2019-04-30T19:26:08.205Z,7.62
2019-04-30T19:28:38.686Z,7.78
2019-04-30T19:31:11.324Z,7.80
2019-04-30T19:33:38.961Z,8.05
2019-04-30T19:36:09.846Z,7.85
2019-04-30T19:38:39.069Z,8.48
2019-04-30T19:41:10.647Z,7.58
2019-04-30T19:43:39.215Z,8.60
2019-04-30T19:46:09.173Z,8.70
2019-04-30T19:48:38.482Z,7.85
2019-04-30T19:51:08.870Z,8.33
2019-04-30T19:53:39.533Z,9.38
2019-04-30T19:56:08.842Z,9.13
2019-04-30T19:58:52.485Z,9.40
2019-04-30T20:01:09.516Z,9.20
2019-04-30T20:03:40.579Z,10.32
2019-04-30T20:06:09.602Z,11.00
2019-04-30T20:08:38.832Z,11.83
2019-04-30T20:11:08.004Z,12.23
2019-04-30T20:13:37.478Z,12.68
2019-04-30T20:16:06.642Z,13.72
2019-04-30T20:18:35.776Z,13.13
2019-04-30T20:21:09.208Z,13.83
2019-04-30T20:23:38.526Z,14.35
2019-04-30T20:26:07.744Z,14.47
2019-04-30T20:28:39.929Z,14.03
2019-04-30T20:31:09.014Z,14.18
2019-04-30T20:33:38.969Z,13.47
2019-04-30T20:36:09.215Z,15.25
2019-04-30T20:38:43.311Z,14.68
2019-04-30T20:41:12.735Z,15.10
2019-04-30T20:43:41.882Z,15.63
2019-04-30T20:46:11.113Z,15.40
2019-04-30T20:48:41.172Z,16.13
2019-04-30T20:51:10.419Z,16.90
2019-04-30T20:53:41.005Z,14.93
2019-04-30T20:56:10.289Z,16.57
2019-04-30T20:58:54.258Z,15.97
2019-04-30T21:01:10.281Z,16.45
2019-04-30T21:03:39.700Z,15.90
2019-04-30T21:06:08.987Z,15.83
2019-04-30T21:08:38.160Z,15.47
2019-04-30T21:11:09.303Z,14.97
2019-04-30T21:13:39.223Z,16.20
2019-04-30T21:16:08.527Z,14.80
2019-04-30T21:18:39.178Z,14.60
2019-04-30T21:21:08.403Z,14.67
2019-04-30T21:23:39.255Z,13.20
2019-04-30T21:26:08.607Z,13.30
2019-04-30T21:28:39.316Z,13.63
2019-04-30T21:31:26.000Z,13.37
2019-04-30T21:34:00.587Z,13.07
2019-04-30T21:36:29.918Z,12.07
2019-04-30T21:38:59.138Z,12.77
2019-04-30T21:41:29.678Z,12.07
2019-04-30T21:43:58.984Z,11.60
2019-04-30T21:46:29.263Z,10.70
2019-04-30T21:48:58.747Z,11.23
2019-04-30T21:51:27.960Z,11.60
2019-04-30T21:53:57.082Z,11.43
2019-04-30T21:56:26.200Z,11.63
2019-04-30T21:58:55.340Z,11.03
2019-04-30T22:01:25.933Z,10.40
2019-04-30T22:03:55.126Z,11.03
2019-04-30T22:06:24.245Z,9.93
2019-04-30T22:08:53.384Z,11.20
2019-04-30T22:11:22.780Z,10.63
2019-04-30T22:13:51.973Z,10.30
2019-04-30T22:16:21.165Z,10.60
2019-04-30T22:18:50.505Z,11.17
2019-04-30T22:21:19.614Z,10.30
2019-04-30T22:23:48.728Z,11.13
2019-04-30T22:26:17.783Z,10.07
2019-04-30T22:28:46.882Z,10.43
2019-04-30T22:31:16.017Z,10.47
2019-04-30T22:33:45.120Z,10.03
2019-04-30T22:36:22.534Z,11.40
2019-04-30T22:39:09.243Z,10.93
2019-04-30T22:41:39.976Z,10.63
2019-04-30T22:44:09.136Z,10.73
2019-04-30T22:46:39.345Z,10.73
2019-04-30T22:49:08.599Z,11.77
2019-04-30T22:51:37.704Z,10.60
2019-04-30T22:54:06.801Z,10.47
2019-04-30T22:56:37.338Z,12.13
2019-04-30T22:59:06.469Z,11.33
2019-04-30T23:01:53.278Z,10.50
2019-04-30T23:04:33.688Z,12.57
2019-04-30T23:07:02.811Z,12.73
2019-04-30T23:09:31.917Z,12.70
2019-04-30T23:12:01.007Z,14.63
2019-04-30T23:14:30.138Z,14.50
2019-04-30T23:16:59.228Z,14.43
2019-04-30T23:19:28.357Z,14.50
2019-04-30T23:21:57.451Z,15.27
2019-04-30T23:24:26.611Z,15.77
2019-04-30T23:26:55.700Z,15.20
2019-04-30T23:29:24.813Z,16.13
2019-04-30T23:31:53.869Z,16.73
2019-04-30T23:34:22.987Z,18.23
2019-04-30T23:36:52.156Z,16.87
2019-04-30T23:39:21.289Z,18.23
2019-04-30T23:41:50.411Z,18.30
2019-04-30T23:44:20.026Z,16.80
2019-04-30T23:46:49.125Z,15.90
2019-04-30T23:49:18.219Z,15.23
2019-04-30T23:51:50.350Z,15.07
2019-04-30T23:54:18.349Z,16.00
2019-04-30T23:56:47.511Z,14.80
2019-04-30T23:59:16.771Z,14.87
